Time;durP1;ratioP1;P1;durP2;ratioP2;P2;SDS_P1;SDS_P2;PMS_P1;PMS_P2;Temp;Humidity;BMP_temperature;BMP_pressure;BME280_temperature;BME280_humidity;BME280_pressure;Samples;Min_cycle;Max_cycle;Signal;HPM_P1;HPM_P2
2023/04/12 00:02:21;;;;;;;5.43;1.50;;;;;;;13.48;48.55;100538.81;4946853;28;118697;-79
2023/04/12 00:04:56;;;;;;;3.92;1.33;;;;;;;13.43;48.66;100542.63;4911987;28;124630;-79
2023/04/12 00:07:23;;;;;;;4.78;1.60;;;;;;;13.40;48.77;100537.47;4941117;28;123367;-79
2023/04/12 00:09:50;;;;;;;4.15;1.60;;;;;;;13.37;49.11;100519.06;4924554;28;121112;-79
2023/04/12 00:12:19;;;;;;;4.43;1.45;;;;;;;13.32;49.05;100513.16;4934180;28;120020;-79
2023/04/12 00:14:47;;;;;;;5.78;1.30;;;;;;;13.30;49.14;100508.84;4944077;28;123791;-79
2023/04/12 00:17:14;;;;;;;4.10;1.23;;;;;;;13.26;49.32;100502.88;4934707;28;123037;-79
2023/04/12 00:19:41;;;;;;;5.05;1.75;;;;;;;13.24;49.50;100494.13;4916327;28;118409;-79
2023/04/12 00:22:08;;;;;;;4.80;1.30;;;;;;;13.22;49.64;100491.56;4913568;28;119790;-79
2023/04/12 00:24:39;;;;;;;6.55;1.73;;;;;;;13.19;49.70;100481.13;4913992;28;122638;-79
2023/04/12 00:27:07;;;;;;;3.90;1.55;;;;;;;13.15;49.70;100474.28;4945039;28;123559;-79
2023/04/12 00:29:35;;;;;;;8.52;1.70;;;;;;;13.15;49.85;100473.44;4914182;28;120313;-79
2023/04/12 00:32:04;;;;;;;6.32;1.60;;;;;;;13.11;49.98;100472.78;4911930;28;120685;-79
2023/04/12 00:34:31;;;;;;;3.83;1.60;;;;;;;13.10;50.08;100459.56;4912711;28;125461;-79
2023/04/12 00:37:00;;;;;;;3.92;1.42;;;;;;;13.08;50.18;100448.19;4927944;28;123392;-79
2023/04/12 00:39:28;;;;;;;4.80;1.58;;;;;;;13.06;50.15;100442.94;4935722;28;120134;-79
2023/04/12 00:41:56;;;;;;;5.32;1.55;;;;;;;13.03;50.32;100438.69;4942756;28;119056;-79
2023/04/12 00:44:23;;;;;;;6.93;1.52;;;;;;;13.00;50.31;100422.91;4922471;28;125605;-79
2023/04/12 00:46:51;;;;;;;4.25;1.70;;;;;;;12.98;50.56;100419.50;4914475;28;123652;-79
2023/04/12 00:49:18;;;;;;;5.68;1.55;;;;;;;12.97;50.60;100407.13;4930578;28;118697;-79
2023/04/12 00:51:45;;;;;;;6.57;1.48;;;;;;;12.95;50.60;100403.72;4939311;28;118815;-79
2023/04/12 00:54:16;;;;;;;3.10;1.20;;;;;;;12.93;50.79;100397.66;4960098;28;124903;-79
2023/04/12 00:56:46;;;;;;;5.50;1.50;;;;;;;12.91;50.87;100391.56;4952674;28;123592;-79
2023/04/12 00:59:13;;;;;;;3.60;1.20;;;;;;;12.90;51.14;100389.84;4943483;28;119187;-79
2023/04/12 01:01:40;;;;;;;5.55;1.60;;;;;;;12.87;51.12;100379.44;4915684;28;119311;-80
2023/04/12 01:04:08;;;;;;;4.15;1.70;;;;;;;12.84;50.97;100379.63;4915965;28;125289;-79
2023/04/12 01:07:02;;;;;;;8.15;1.63;;;;;;;12.81;51.23;100385.13;4935085;28;124618;-79
2023/04/12 01:09:43;;;;;;;3.88;1.55;;;;;;;12.78;51.21;100369.38;4912991;28;118890;-79
2023/04/12 01:12:32;;;;;;;5.97;1.50;;;;;;;12.76;51.54;100365.97;4921666;28;120146;-80
2023/04/12 01:15:07;;;;;;;8.80;1.88;;;;;;;12.73;51.54;100350.19;4927442;28;123564;-79
2023/04/12 01:17:44;;;;;;;6.15;1.80;;;;;;;12.71;51.64;100346.78;4923313;28;123477;-79
2023/04/12 01:20:22;;;;;;;4.78;1.73;;;;;;;12.70;51.82;100340.63;4931308;28;118893;-79
2023/04/12 01:23:08;;;;;;;6.80;1.75;;;;;;;12.66;51.77;100324.00;4912963;28;118676;-79
2023/04/12 01:25:47;;;;;;;5.82;1.88;;;;;;;12.63;51.82;100318.88;4908886;28;123077;-79
2023/04/12 01:28:26;;;;;;;5.35;1.83;;;;;;;12.59;51.90;100304.09;4929677;28;122497;-79
2023/04/12 01:30:54;;;;;;;5.53;1.70;;;;;;;12.59;51.83;100298.78;4913477;28;117598;-79
2023/04/12 01:33:23;;;;;;;5.07;1.55;;;;;;;12.57;52.18;100300.66;4913183;28;117419;-79
2023/04/12 01:35:52;;;;;;;7.28;1.70;;;;;;;12.54;51.80;100287.56;4916096;28;124744;-79
2023/04/12 01:38:20;;;;;;;7.10;1.35;;;;;;;12.52;52.05;100278.84;4914130;28;122881;-79
2023/04/12 01:40:47;;;;;;;5.38;1.80;;;;;;;12.49;52.29;100273.75;4927435;28;118742;-79
2023/04/12 01:43:15;;;;;;;9.50;1.70;;;;;;;12.49;52.16;100273.75;4925269;28;118848;-79
2023/04/12 01:45:42;;;;;;;5.75;1.70;;;;;;;12.48;52.46;100268.53;4925914;28;123818;-79
2023/04/12 01:48:11;;;;;;;5.07;1.35;;;;;;;12.45;52.44;100262.44;4913625;28;124038;-79
2023/04/12 01:50:48;;;;;;;4.70;1.58;;;;;;;12.44;52.63;100254.56;4922741;28;119795;-79
2023/04/12 01:53:31;;;;;;;5.50;1.60;;;;;;;12.43;52.75;100236.91;4945594;28;117896;-80
2023/04/12 01:56:08;;;;;;;7.47;1.50;;;;;;;12.40;52.55;100231.81;4946170;28;124616;-79
2023/04/12 01:58:38;;;;;;;5.22;1.60;;;;;;;12.40;52.67;100237.13;4913114;28;124632;-79
2023/04/12 02:01:07;;;;;;;6.20;1.50;;;;;;;12.35;52.70;100213.50;4944608;28;119278;-79
2023/04/12 02:03:41;;;;;;;4.15;1.45;;;;;;;12.34;52.70;100210.94;4938455;28;118980;-79
2023/04/12 02:06:09;;;;;;;4.88;1.42;;;;;;;12.32;52.60;100205.75;4922869;28;124854;-79
2023/04/12 02:08:37;;;;;;;3.83;1.50;;;;;;;12.30;52.85;100209.44;4935748;28;123656;-79
2023/04/12 02:11:08;;;;;;;7.07;1.38;;;;;;;12.28;52.96;100206.88;4930977;28;121067;-79
2023/04/12 02:13:35;;;;;;;5.18;1.25;;;;;;;12.25;53.28;100191.97;4929470;28;120014;-79
2023/04/12 02:16:04;;;;;;;2.88;1.08;;;;;;;12.24;52.90;100179.69;4932601;28;125093;-79
2023/04/12 02:18:35;;;;;;;4.55;1.80;;;;;;;12.24;52.88;100163.75;4947094;28;124414;-79
2023/04/12 02:21:04;;;;;;;7.13;1.50;;;;;;;12.21;52.97;100145.34;4931700;28;120186;-79
2023/04/12 02:23:31;;;;;;;5.60;1.80;;;;;;;12.21;53.11;100148.00;4932467;28;119657;-79
2023/04/12 02:25:58;;;;;;;5.80;1.70;;;;;;;12.20;53.00;100140.13;4939690;28;124091;-79
2023/04/12 02:28:26;;;;;;;4.00;1.45;;;;;;;12.17;53.16;100130.56;4928091;28;125018;-79
2023/04/12 02:30:54;;;;;;;7.40;1.80;;;;;;;12.16;53.17;100123.53;4915615;28;118747;-79
2023/04/12 02:33:26;;;;;;;4.03;1.40;;;;;;;12.15;53.16;100111.22;4945045;28;120079;-79
2023/04/12 02:35:57;;;;;;;3.55;1.58;;;;;;;12.14;53.17;100109.50;4926379;28;124412;-79
2023/04/12 02:38:24;;;;;;;5.07;1.48;;;;;;;12.14;53.38;100104.19;4930096;28;125074;-79
2023/04/12 02:40:51;;;;;;;2.63;1.25;;;;;;;12.13;53.05;100080.41;4932533;28;120221;-79
2023/04/12 02:43:19;;;;;;;6.93;1.35;;;;;;;12.12;53.24;100084.88;4914288;28;121186;-79
2023/04/12 02:45:54;;;;;;;3.67;1.60;;;;;;;12.12;53.30;100074.25;4929211;28;125244;-79
2023/04/12 02:48:22;;;;;;;3.50;1.50;;;;;;;12.12;53.21;100074.25;4931951;28;125938;-79
2023/04/12 02:50:50;;;;;;;4.38;1.58;;;;;;;12.14;53.34;100077.66;4916551;28;121020;-79
2023/04/12 02:53:21;;;;;;;6.50;1.65;;;;;;;12.14;53.47;100061.72;4915880;28;119705;-79
2023/04/12 02:56:05;;;;;;;5.07;1.50;;;;;;;12.15;53.51;100051.97;4916626;28;124948;-79
2023/04/12 02:58:34;;;;;;;4.03;1.30;;;;;;;12.15;53.32;100051.97;4927155;28;124303;-78
2023/04/12 03:01:06;;;;;;;3.65;1.27;;;;;;;12.14;53.55;100045.81;4927059;28;120304;-78
2023/04/12 03:03:44;;;;;;;2.47;1.23;;;;;;;12.15;53.38;100030.72;4932380;28;120022;-79
2023/04/12 03:06:29;;;;;;;5.03;1.30;;;;;;;12.14;53.51;100032.53;4928424;28;125168;-79
2023/04/12 03:08:56;;;;;;;6.68;1.17;;;;;;;12.13;53.26;100014.91;4915332;28;124950;-79
2023/04/12 03:11:24;;;;;;;4.15;1.30;;;;;;;12.13;53.40;100006.97;4930213;28;119487;-79
2023/04/12 03:13:52;;;;;;;4.45;1.23;;;;;;;12.13;53.62;100006.97;4930583;28;120089;-79
2023/04/12 03:16:22;;;;;;;3.42;1.40;;;;;;;12.13;53.62;99996.34;4932523;28;125091;-79
2023/04/12 03:18:55;;;;;;;2.63;1.20;;;;;;;12.13;53.52;99988.38;4946378;28;125347;-79
2023/04/12 03:21:25;;;;;;;3.53;1.50;;;;;;;12.14;53.61;99991.88;4927659;28;120398;-79
2023/04/12 03:23:53;;;;;;;3.53;1.05;;;;;;;12.14;53.65;99979.44;4951490;28;120243;-79
2023/04/12 03:26:20;;;;;;;4.20;1.42;;;;;;;12.13;53.74;99975.09;4942164;28;123644;-79
2023/04/12 03:29:00;;;;;;;2.90;1.20;;;;;;;12.14;53.63;99974.13;4930172;28;124524;-79
2023/04/12 03:31:31;;;;;;;3.92;1.30;;;;;;;12.13;53.64;99977.75;4913453;28;120204;-79
2023/04/12 03:34:03;;;;;;;4.75;1.30;;;;;;;12.12;53.88;99965.44;4945062;28;119831;-79
2023/04/12 03:36:31;;;;;;;5.32;1.38;;;;;;;12.10;54.01;99964.69;4940466;28;123986;-79
2023/04/12 03:39:07;;;;;;;3.25;1.13;;;;;;;12.09;54.00;99968.25;4924347;28;124081;-79
2023/04/12 03:41:36;;;;;;;3.63;1.20;;;;;;;12.08;54.37;99961.28;4915122;28;120408;-79
2023/04/12 03:44:04;;;;;;;3.70;1.10;;;;;;;12.08;54.10;99961.28;4930585;28;120097;-79
2023/04/12 03:46:33;;;;;;;2.97;1.33;;;;;;;12.06;54.20;99947.25;4942223;28;124524;-78
2023/04/12 03:49:05;;;;;;;3.15;1.13;;;;;;;12.05;54.12;99940.22;4940122;28;125088;-79
2023/04/12 03:51:33;;;;;;;2.05;1.20;;;;;;;12.03;54.20;99936.81;4915094;28;118836;-79
2023/04/12 03:54:03;;;;;;;3.83;1.50;;;;;;;12.01;54.49;99938.72;4929442;28;120250;-79
2023/04/12 03:56:51;;;;;;;3.38;1.30;;;;;;;12.00;54.38;99921.13;4917268;28;124508;-79
2023/04/12 03:59:24;;;;;;;4.88;1.30;;;;;;;11.99;54.48;99919.41;4926000;28;124698;-79
2023/04/12 04:01:53;;;;;;;4.10;1.65;;;;;;;11.97;54.50;99910.69;4929337;28;118885;-79
2023/04/12 04:04:22;;;;;;;4.30;1.50;;;;;;;11.96;54.72;99909.00;4917330;28;118512;-79
2023/04/12 04:06:54;;;;;;;3.05;1.40;;;;;;;11.95;54.29;99902.00;4932390;28;125509;-77
2023/04/12 04:09:21;;;;;;;3.60;1.13;;;;;;;11.94;54.70;99900.28;4943591;28;125463;-77
2023/04/12 04:11:50;;;;;;;5.95;1.30;;;;;;;11.94;54.86;99893.19;4927937;28;120242;-77
2023/04/12 04:14:20;;;;;;;4.25;1.30;;;;;;;11.94;54.89;99892.31;4914156;28;121988;-79
2023/04/12 04:16:47;;;;;;;3.05;1.05;;;;;;;11.93;54.82;99886.16;4914784;28;123991;-79
2023/04/12 04:19:16;;;;;;;4.60;1.23;;;;;;;11.93;54.95;99874.72;4931286;28;125683;-79
2023/04/12 04:21:46;;;;;;;3.15;1.30;;;;;;;11.91;54.92;99884.59;4929653;28;120327;-80
2023/04/12 04:24:13;;;;;;;2.55;1.30;;;;;;;11.91;54.96;99889.88;4929495;28;119456;-79
2023/04/12 04:26:45;;;;;;;5.55;1.60;;;;;;;11.91;55.23;99879.28;4930277;28;123525;-79
2023/04/12 04:29:24;;;;;;;3.28;1.17;;;;;;;11.91;55.32;99881.94;4913010;28;122922;-79
2023/04/12 04:31:53;;;;;;;2.53;1.25;;;;;;;11.91;55.11;99873.97;4909654;28;120481;-79
2023/04/12 04:34:22;;;;;;;4.90;1.42;;;;;;;11.91;55.14;99863.34;4910411;28;118255;-79
2023/04/12 04:36:51;;;;;;;5.90;1.60;;;;;;;11.91;55.35;99868.66;4927036;28;124472;-79
2023/04/12 04:39:24;;;;;;;3.05;1.40;;;;;;;11.91;55.45;99852.75;4944048;28;123458;-79
2023/04/12 04:41:54;;;;;;;2.42;1.35;;;;;;;11.88;55.51;99854.63;4940510;28;120499;-79
2023/04/12 04:44:34;;;;;;;2.53;1.23;;;;;;;11.86;55.33;99851.19;4914143;28;120118;-79
2023/04/12 04:47:05;;;;;;;4.78;1.30;;;;;;;11.86;55.27;99840.56;4914449;28;124513;-79
2023/04/12 04:49:33;;;;;;;2.80;1.10;;;;;;;11.85;55.36;99833.59;4926467;28;123369;-80
2023/04/12 04:52:23;;;;;;;3.03;1.38;;;;;;;11.85;55.22;99841.53;4924211;28;119196;-80
2023/04/12 04:54:56;;;;;;;2.97;1.35;;;;;;;11.83;55.14;99835.50;4918862;28;119856;-79
2023/04/12 04:57:25;;;;;;;3.10;1.27;;;;;;;11.82;55.62;99836.44;4916334;28;125781;-79
2023/04/12 04:59:55;;;;;;;3.20;1.20;;;;;;;11.82;55.34;99833.78;4916824;28;125116;-80
2023/04/12 05:02:22;;;;;;;5.78;1.30;;;;;;;11.81;55.50;99821.47;4961504;28;117399;-80
2023/04/12 05:04:50;;;;;;;2.22;1.20;;;;;;;11.80;55.39;99825.06;4947993;28;118388;-80
2023/04/12 05:07:21;;;;;;;4.40;1.45;;;;;;;11.80;55.49;99822.41;4949221;28;122299;-79
2023/04/12 05:09:48;;;;;;;3.03;1.30;;;;;;;11.81;55.47;99816.19;4949980;28;122034;-79
2023/04/12 05:12:18;;;;;;;2.70;1.23;;;;;;;11.81;55.61;99813.53;4954074;28;119108;-79
2023/04/12 05:14:50;;;;;;;6.20;1.20;;;;;;;11.81;55.57;99804.69;4933708;28;119558;-79
2023/04/12 05:17:18;;;;;;;2.08;1.15;;;;;;;11.80;55.44;99814.47;4965579;28;122563;-80
2023/04/12 05:19:46;;;;;;;3.13;1.33;;;;;;;11.80;55.70;99803.00;4931418;28;122171;-81
2023/04/12 05:22:13;;;;;;;7.47;1.30;;;;;;;11.80;55.81;99798.53;4948523;28;121613;-79
2023/04/12 05:24:40;;;;;;;5.50;1.30;;;;;;;11.80;55.67;99801.19;4935728;28;117492;-79
2023/04/12 05:27:08;;;;;;;2.40;0.98;;;;;;;11.80;55.64;99795.88;4935185;28;123328;-80
2023/04/12 05:29:35;;;;;;;2.53;1.23;;;;;;;11.80;55.67;99787.94;4948269;28;123643;-80
2023/04/12 05:32:04;;;;;;;2.50;1.00;;;;;;;11.81;55.53;99787.00;4925111;28;117754;-80
2023/04/12 05:34:32;;;;;;;3.30;1.10;;;;;;;11.81;55.48;99784.34;4937094;28;118676;-80
2023/04/12 05:36:59;;;;;;;2.95;1.00;;;;;;;11.82;55.42;99780.72;4951610;28;123553;-80
2023/04/12 05:39:32;;;;;;;4.63;1.30;;;;;;;11.83;55.54;99778.94;4942688;28;124040;-80
2023/04/12 05:41:59;;;;;;;2.38;1.17;;;;;;;11.82;55.58;99775.41;4947462;28;117271;-80
2023/04/12 05:44:27;;;;;;;1.65;0.88;;;;;;;11.81;55.76;99773.72;4933419;28;118378;-80
2023/04/12 05:46:54;;;;;;;1.65;0.95;;;;;;;11.82;55.72;99780.72;4964486;28;123801;-80
2023/04/12 05:49:21;;;;;;;2.13;1.02;;;;;;;11.84;55.89;99784.13;4946890;28;125024;-80
2023/04/12 05:51:49;;;;;;;2.35;1.10;;;;;;;11.84;55.63;99789.41;4940916;28;120547;-80
2023/04/12 05:54:20;;;;;;;1.52;0.93;;;;;;;11.86;55.58;99787.50;4926150;28;120041;-80
2023/04/12 05:56:53;;;;;;;1.63;0.88;;;;;;;11.88;55.67;99785.63;4947186;28;124449;-80
2023/04/12 05:59:21;;;;;;;1.77;0.82;;;;;;;11.90;55.57;99774.09;4930225;28;123449;-80
2023/04/12 06:01:49;;;;;;;1.80;0.88;;;;;;;11.90;55.57;99779.38;4940405;28;121265;-79
2023/04/12 06:04:18;;;;;;;2.10;0.90;;;;;;;11.92;55.71;99785.44;4959575;28;119759;-80
2023/04/12 06:06:46;;;;;;;3.50;1.13;;;;;;;11.94;55.90;99778.22;4946762;28;122534;-80
2023/04/12 06:09:14;;;;;;;2.47;0.90;;;;;;;11.97;55.79;99778.03;4928203;28;122804;-80
2023/04/12 06:11:42;;;;;;;3.67;1.00;;;;;;;12.00;55.78;99777.81;4957483;28;118473;-80
2023/04/12 06:14:10;;;;;;;3.50;1.30;;;;;;;12.01;55.69;99774.19;4961016;28;119967;-80
2023/04/12 06:16:38;;;;;;;3.13;1.10;;;;;;;12.01;55.89;99774.19;4941716;28;124279;-80
2023/04/12 06:19:09;;;;;;;4.93;1.33;;;;;;;12.01;55.81;99774.19;4936756;28;124124;-80
2023/04/12 06:21:37;;;;;;;3.88;1.48;;;;;;;12.03;55.87;99773.13;4940771;28;119883;-80
2023/04/12 06:24:08;;;;;;;1.50;1.00;;;;;;;12.07;56.04;99774.66;4933407;28;117318;-80
2023/04/12 06:26:36;;;;;;;3.95;1.40;;;;;;;12.09;56.13;99763.91;4936664;28;123766;-81
2023/04/12 06:29:07;;;;;;;2.47;1.38;;;;;;;12.12;56.28;99765.50;4923506;28;125075;-80
2023/04/12 06:31:35;;;;;;;2.13;1.30;;;;;;;12.14;56.13;99764.44;4935962;28;119223;-80
2023/04/12 06:34:02;;;;;;;1.83;1.30;;;;;;;12.16;56.00;99743.94;4937430;28;118023;-79
2023/04/12 06:36:31;;;;;;;2.03;1.30;;;;;;;12.18;56.21;99744.69;4937085;28;122251;-79
2023/04/12 06:38:59;;;;;;;2.28;1.45;;;;;;;12.20;56.29;99742.78;4970665;28;123887;-79
2023/04/12 06:41:31;;;;;;;1.55;1.00;;;;;;;12.21;56.37;99739.19;4955205;28;117813;-80
2023/04/12 06:44:00;;;;;;;1.77;1.20;;;;;;;12.25;56.21;99743.31;4961100;28;119014;-80
2023/04/12 06:46:28;;;;;;;2.28;1.17;;;;;;;12.27;56.17;99733.44;4958677;28;123548;-80
2023/04/12 06:48:55;;;;;;;2.83;1.42;;;;;;;12.30;56.39;99742.13;4970497;28;124498;-80
2023/04/12 06:51:23;;;;;;;3.03;1.20;;;;;;;12.33;56.26;99733.97;4947491;28;120168;-79
2023/04/12 06:53:50;;;;;;;1.80;1.00;;;;;;;12.36;56.36;99728.44;4969508;28;120438;-80
2023/04/12 06:56:17;;;;;;;2.42;1.00;;;;;;;12.40;56.35;99732.59;4956419;28;124947;-81
2023/04/12 06:58:45;;;;;;;3.15;1.17;;;;;;;12.41;56.32;99719.19;4943358;28;123055;-81
2023/04/12 07:01:13;;;;;;;1.55;0.93;;;;;;;12.44;56.69;99718.13;4974215;28;120206;-81
2023/04/12 07:03:40;;;;;;;2.47;1.15;;;;;;;12.47;56.56;99717.91;4958338;28;117629;-81
2023/04/12 07:06:08;;;;;;;1.60;0.98;;;;;;;12.51;56.49;99718.53;4975742;28;125049;-81
2023/04/12 07:08:51;;;;;;;1.42;0.93;;;;;;;12.55;56.24;99720.88;4978268;28;125690;-80
2023/04/12 07:11:21;;;;;;;3.05;1.00;;;;;;;12.58;56.54;99720.66;4938997;28;118960;-82
2023/04/12 07:13:54;;;;;;;2.53;1.15;;;;;;;12.61;56.76;99720.41;4963999;28;119433;-83
2023/04/12 07:16:22;;;;;;;1.85;1.23;;;;;;;12.65;56.78;99724.53;4977254;28;123870;-83
2023/04/12 07:18:50;;;;;;;1.50;1.38;;;;;;;12.69;56.71;99733.16;4976299;28;124363;-83
2023/04/12 07:21:18;;;;;;;2.05;1.10;;;;;;;12.73;56.70;99733.78;4960357;28;119926;-82
2023/04/12 07:23:46;;;;;;;1.25;1.08;;;;;;;12.75;56.73;99726.53;4970593;28;119933;-80
2023/04/12 07:26:13;;;;;;;2.65;1.15;;;;;;;12.77;56.63;99724.63;4952309;28;122877;-80
2023/04/12 07:28:40;;;;;;;2.58;1.30;;;;;;;12.79;56.65;99723.56;4929509;28;123907;-79
2023/04/12 07:31:08;;;;;;;3.97;1.35;;;;;;;12.81;56.68;99720.81;4945243;28;118059;-79
2023/04/12 07:33:36;;;;;;;4.10;1.38;;;;;;;12.83;56.72;99726.88;4960434;28;118671;-79
2023/04/12 07:36:06;;;;;;;2.13;1.40;;;;;;;12.86;57.14;99729.28;4928894;28;124281;-80
2023/04/12 07:38:33;;;;;;;3.65;2.00;;;;;;;12.87;57.21;99738.97;4924736;28;122223;-80
2023/04/12 07:41:01;;;;;;;2.05;1.38;;;;;;;12.89;56.94;99745.00;4958430;28;119700;-85
2023/04/12 07:43:28;;;;;;;2.05;1.38;;;;;;;12.88;57.11;99753.94;4935965;28;120640;-82
2023/04/12 07:45:56;;;;;;;3.28;1.60;;;;;;;12.86;57.33;99745.22;4984820;28;124703;-80
2023/04/12 07:48:23;;;;;;;4.03;1.90;;;;;;;12.86;57.61;99739.91;4977085;28;124419;-80
2023/04/12 07:50:50;;;;;;;5.20;1.77;;;;;;;12.88;57.56;99737.97;4975109;28;120219;-79
2023/04/12 07:53:23;;;;;;;3.25;1.92;;;;;;;12.90;57.81;99736.06;4953716;28;118031;-81
2023/04/12 07:55:51;;;;;;;5.97;1.92;;;;;;;12.93;58.03;99735.84;4948367;28;124827;-80
2023/04/12 07:58:19;;;;;;;6.90;2.35;;;;;;;12.98;57.91;99744.34;4975216;28;124455;-79
2023/04/12 08:00:46;;;;;;;4.72;2.33;;;;;;;13.01;57.95;99728.16;4940711;28;118939;-80
2023/04/12 08:03:15;;;;;;;4.15;2.08;;;;;;;13.04;58.02;99735.91;4976657;28;119783;-81
2023/04/12 08:05:44;;;;;;;4.07;2.20;;;;;;;13.07;58.04;99736.66;4973382;28;125000;-81
2023/04/12 08:08:11;;;;;;;4.32;2.30;;;;;;;13.08;57.95;99735.69;4957505;28;125185;-83
2023/04/12 08:10:38;;;;;;;5.93;2.60;;;;;;;13.09;57.95;99740.03;4967906;28;120164;-81
2023/04/12 08:13:06;;;;;;;4.50;2.33;;;;;;;13.11;57.82;99743.44;4957588;28;119474;-81
2023/04/12 08:15:33;;;;;;;6.20;2.55;;;;;;;13.13;57.68;99731.75;4973160;28;123585;-81
2023/04/12 08:18:01;;;;;;;5.85;2.53;;;;;;;13.15;57.88;99739.63;4969386;28;124690;-80
2023/04/12 08:20:30;;;;;;;4.80;2.47;;;;;;;13.18;57.98;99745.53;4973565;28;96462;-80
2023/04/12 08:22:57;;;;;;;5.05;2.53;;;;;;;13.24;57.91;99738.91;4957308;28;120364;-80
2023/04/12 08:25:25;;;;;;;5.82;3.03;;;;;;;13.27;58.08;99733.38;4974510;28;125004;-80
2023/04/12 08:27:52;;;;;;;5.45;2.60;;;;;;;13.31;58.00;99732.22;4973892;28;124488;-80
2023/04/12 08:30:25;;;;;;;6.30;2.80;;;;;;;13.36;57.88;99734.53;4969668;28;120819;-82
2023/04/12 08:32:52;;;;;;;6.13;2.58;;;;;;;13.42;58.05;99742.91;4944440;28;119888;-80
2023/04/12 08:35:21;;;;;;;8.30;2.67;;;;;;;13.47;57.96;99739.03;4974354;28;123823;-82
2023/04/12 08:37:48;;;;;;;7.25;3.13;;;;;;;13.52;57.91;99742.22;4956374;28;123425;-82
2023/04/12 08:40:16;;;;;;;12.38;2.83;;;;;;;13.58;58.10;99737.28;4970501;28;119030;-80
2023/04/12 08:42:43;;;;;;;9.93;3.00;;;;;;;13.65;57.98;99742.97;4947494;28;118351;-83
2023/04/12 08:45:11;;;;;;;10.02;2.65;;;;;;;13.71;58.17;99737.22;4953714;28;123750;-81
2023/04/12 08:47:43;;;;;;;6.50;2.65;;;;;;;13.77;58.27;99736.75;4952375;28;123623;-80
2023/04/12 08:50:14;;;;;;;7.15;2.92;;;;;;;13.86;58.07;99739.66;4959055;28;120286;-83
2023/04/12 08:52:41;;;;;;;10.68;3.35;;;;;;;13.91;57.98;99742.81;4966082;28;119776;-82
2023/04/12 08:55:11;;;;;;;10.35;3.20;;;;;;;13.96;58.00;99740.66;4960822;28;125056;-82
2023/04/12 08:57:40;;;;;;;9.15;3.80;;;;;;;14.04;57.82;99748.06;4963862;28;124592;-81
2023/04/12 09:00:08;;;;;;;11.70;3.80;;;;;;;14.07;57.89;99743.34;4948950;28;118653;-82
2023/04/12 09:02:37;;;;;;;9.57;3.30;;;;;;;14.12;57.68;99741.16;4953157;28;117541;-81
2023/04/12 09:05:05;;;;;;;7.55;2.80;;;;;;;14.13;57.53;99732.22;4954710;28;123674;-83
2023/04/12 09:07:33;;;;;;;8.63;2.63;;;;;;;14.15;57.39;99735.59;4955629;28;123326;-81
2023/04/12 09:10:00;;;;;;;5.97;2.70;;;;;;;14.14;57.43;99723.25;4982283;28;119759;-82
2023/04/12 09:12:28;;;;;;;7.55;2.80;;;;;;;14.19;57.47;99725.56;4972134;28;119623;-83
2023/04/12 09:15:07;;;;;;;8.55;2.58;;;;;;;14.27;57.80;99723.13;4954695;28;124884;-81
2023/04/12 09:17:37;;;;;;;14.52;3.33;;;;;;;14.38;57.77;99730.28;4966982;28;123968;-82
2023/04/12 09:20:10;;;;;;;9.80;2.75;;;;;;;14.48;57.64;99715.25;4936668;28;120066;-82
2023/04/12 09:22:43;;;;;;;10.95;2.45;;;;;;;14.55;57.21;99711.13;4966257;28;119179;-80
2023/04/12 09:25:11;;;;;;;7.70;2.53;;;;;;;14.62;57.04;99705.34;4950765;28;122154;-81
2023/04/12 09:27:53;;;;;;;9.93;3.00;;;;;;;14.68;57.22;99699.53;4934545;28;121970;-83
2023/04/12 09:30:20;;;;;;;9.15;2.40;;;;;;;14.78;56.99;99706.66;4925519;28;117980;-82
2023/04/12 09:32:52;;;;;;;7.63;2.42;;;;;;;14.86;56.66;99698.06;4924103;28;118781;-81
2023/04/12 09:35:33;;;;;;;9.52;2.28;;;;;;;14.94;56.61;99690.25;4939613;28;122831;-81
2023/04/12 09:38:10;;;;;;;11.55;3.00;;;;;;;15.05;56.58;99683.19;4918530;28;123293;-81
2023/04/12 09:40:38;;;;;;;10.73;2.55;;;;;;;15.18;56.71;99691.88;4944557;28;119608;-80
2023/04/12 09:43:06;;;;;;;9.25;2.55;;;;;;;15.30;56.52;99690.88;4965850;28;120072;-82
2023/04/12 09:45:37;;;;;;;10.05;2.20;;;;;;;15.42;56.08;99696.16;4940975;28;123292;-80
2023/04/12 09:48:05;;;;;;;6.50;2.05;;;;;;;15.49;55.86;99692.00;4934936;28;123031;-82
2023/04/12 09:50:33;;;;;;;12.60;2.53;;;;;;;15.56;55.50;99695.84;4943425;28;120198;-80
2023/04/12 09:53:02;;;;;;;12.10;2.72;;;;;;;15.60;55.39;99697.28;4926682;28;118697;-81
2023/04/12 09:55:33;;;;;;;14.25;2.60;;;;;;;15.67;55.39;99703.78;4967868;28;124288;-80
2023/04/12 09:58:02;;;;;;;12.77;3.20;;;;;;;15.75;55.35;99706.69;4947247;28;124252;-81
2023/04/12 10:00:32;;;;;;;9.30;2.85;;;;;;;15.84;55.25;99693.50;4968273;28;120044;-80
2023/04/12 10:03:00;;;;;;;8.07;3.33;;;;;;;15.93;55.16;99698.06;4951667;28;118215;-80
2023/04/12 10:05:28;;;;;;;14.60;3.38;;;;;;;16.03;54.92;99692.78;4966887;28;124498;-81
2023/04/12 10:07:58;;;;;;;13.35;3.67;;;;;;;16.09;54.82;99687.75;4952667;28;123176;-80
2023/04/12 10:10:29;;;;;;;10.75;3.03;;;;;;;16.15;54.66;99692.56;4963446;28;118656;-82
2023/04/12 10:12:57;;;;;;;16.23;3.75;;;;;;;16.25;54.52;99697.09;4931502;28;121156;-82
2023/04/12 10:15:25;;;;;;;13.65;3.63;;;;;;;16.31;54.19;99691.22;4929835;28;121985;-80
2023/04/12 10:17:59;;;;;;;10.80;3.28;;;;;;;16.38;54.06;99687.03;4950613;28;122926;-80
2023/04/12 10:20:26;;;;;;;14.85;3.22;;;;;;;16.45;53.99;99679.34;4952675;28;119346;-79
2023/04/12 10:22:58;;;;;;;12.50;3.45;;;;;;;16.52;53.60;99678.66;4952969;28;117242;-81
2023/04/12 10:25:29;;;;;;;15.68;3.58;;;;;;;16.59;53.77;99667.41;4958747;28;124332;-81
2023/04/12 10:28:16;;;;;;;14.80;4.00;;;;;;;16.69;53.95;99662.94;4954788;28;122910;-82
2023/04/12 10:30:46;;;;;;;15.70;3.40;;;;;;;16.81;53.60;99667.19;4934017;28;117634;-83
2023/04/12 10:33:15;;;;;;;12.25;3.45;;;;;;;16.90;53.53;99677.06;4969463;28;117365;-80
2023/04/12 10:36:01;;;;;;;14.35;3.50;;;;;;;16.98;53.34;99678.22;4937728;28;124809;-83
2023/04/12 10:38:44;;;;;;;12.88;3.45;;;;;;;17.05;52.92;99690.06;4910060;28;122047;-82
2023/04/12 10:41:16;;;;;;;15.57;3.80;;;;;;;17.09;52.71;99681.59;4930881;28;119904;-81
2023/04/12 10:43:48;;;;;;;15.07;4.00;;;;;;;17.13;52.61;99682.16;4932674;28;119216;-81
2023/04/12 10:46:36;;;;;;;13.90;3.80;;;;;;;17.16;52.26;99676.56;4918133;28;123422;-79
2023/04/12 10:49:08;;;;;;;11.02;3.58;;;;;;;17.13;51.66;99666.13;4946986;28;124625;-82
2023/04/12 10:51:36;;;;;;;12.95;3.78;;;;;;;17.10;51.65;99666.38;4932466;28;118577;-79
2023/04/12 10:54:16;;;;;;;12.93;3.72;;;;;;;17.05;51.32;99674.00;4933904;28;117571;-81
2023/04/12 10:56:44;;;;;;;14.50;4.30;;;;;;;17.01;51.39;99677.91;4946493;28;123823;-83
2023/04/12 10:59:22;;;;;;;15.88;4.82;;;;;;;16.97;51.29;99671.16;4947307;28;122295;-81
2023/04/12 11:02:03;;;;;;;18.98;4.72;;;;;;;16.90;51.13;99677.06;4936560;28;119043;-81
2023/04/12 11:04:30;;;;;;;11.25;4.05;;;;;;;16.85;51.03;99679.31;4934343;28;119955;-88
2023/04/12 11:07:10;;;;;;;11.00;3.90;;;;;;;16.82;51.22;99679.59;4920558;28;123684;-83
2023/04/12 11:10:13;;;;;;;10.02;3.75;;;;;;;16.80;51.35;99691.38;4913974;28;122464;-82
2023/04/12 11:12:46;;;;;;;14.77;4.10;;;;;;;16.80;51.31;99686.91;4948006;28;118794;-83
2023/04/12 11:15:14;;;;;;;10.85;3.47;;;;;;;16.76;51.06;99685.44;4933293;28;117267;-80
2023/04/12 11:17:56;;;;;;;12.93;3.20;;;;;;;16.73;50.50;99691.09;4932673;28;123883;-81
2023/04/12 11:20:26;;;;;;;17.60;3.20;;;;;;;16.70;50.33;99686.00;4918286;28;122701;-80
2023/04/12 11:22:53;;;;;;;11.20;2.97;;;;;;;16.64;50.05;99691.91;4930812;28;119223;-83
2023/04/12 11:25:23;;;;;;;12.73;3.00;;;;;;;16.59;49.87;99688.78;4934218;28;118463;-80
2023/04/12 11:27:52;;;;;;;12.80;2.60;;;;;;;16.55;49.48;99691.72;4952832;28;123792;-81
2023/04/12 11:30:19;;;;;;;14.30;2.55;;;;;;;16.53;49.24;99696.38;4956503;28;123298;-81
2023/04/12 11:32:46;;;;;;;12.32;2.85;;;;;;;16.50;49.07;99691.31;4927244;28;117257;-82
2023/04/12 11:35:21;;;;;;;13.02;2.97;;;;;;;16.47;49.21;99691.56;4953734;28;117487;-82
2023/04/12 11:37:48;;;;;;;14.03;2.67;;;;;;;16.43;49.09;99690.16;4934191;28;124023;-83